sensor_id;sensor_type;location;lat;lon;timestamp;pressure;altitude;pressure_sealevel;temperature
23208;BMP180;11773;52.570;13.052;2023-02-15T00:02:00;102869.00;;;8.20
23208;BMP180;11773;52.570;13.052;2023-02-15T00:04:29;102875.00;;;8.20
23208;BMP180;11773;52.570;13.052;2023-02-15T00:07:17;102859.00;;;8.20
23208;BMP180;11773;52.570;13.052;2023-02-15T00:09:47;102868.00;;;8.20
23208;BMP180;11773;52.570;13.052;2023-02-15T00:12:17;102857.00;;;8.10
23208;BMP180;11773;52.570;13.052;2023-02-15T00:14:53;102850.00;;;8.10
23208;BMP180;11773;52.570;13.052;2023-02-15T00:17:22;102853.00;;;8.10
23208;BMP180;11773;52.570;13.052;2023-02-15T00:19:52;102854.00;;;8.10
23208;BMP180;11773;52.570;13.052;2023-02-15T00:22:21;102846.00;;;8.10
23208;BMP180;11773;52.570;13.052;2023-02-15T00:24:51;102852.00;;;8.10
23208;BMP180;11773;52.570;13.052;2023-02-15T00:27:20;102848.00;;;8.00
23208;BMP180;11773;52.570;13.052;2023-02-15T00:29:50;102846.00;;;8.00
23208;BMP180;11773;52.570;13.052;2023-02-15T00:32:19;102843.00;;;8.00
23208;BMP180;11773;52.570;13.052;2023-02-15T00:34:49;102843.00;;;7.90
23208;BMP180;11773;52.570;13.052;2023-02-15T00:37:18;102866.00;;;7.90
23208;BMP180;11773;52.570;13.052;2023-02-15T00:39:48;102870.00;;;7.90
23208;BMP180;11773;52.570;13.052;2023-02-15T00:42:17;102856.00;;;7.90
23208;BMP180;11773;52.570;13.052;2023-02-15T00:44:47;102860.00;;;7.90
23208;BMP180;11773;52.570;13.052;2023-02-15T00:47:16;102857.00;;;7.90
23208;BMP180;11773;52.570;13.052;2023-02-15T00:49:45;102849.00;;;7.90
23208;BMP180;11773;52.570;13.052;2023-02-15T00:52:15;102844.00;;;7.90
23208;BMP180;11773;52.570;13.052;2023-02-15T00:54:44;102839.00;;;7.80
23208;BMP180;11773;52.570;13.052;2023-02-15T00:57:14;102839.00;;;7.80
23208;BMP180;11773;52.570;13.052;2023-02-15T00:59:43;102840.00;;;7.80
23208;BMP180;11773;52.570;13.052;2023-02-15T01:02:13;102839.00;;;7.80
23208;BMP180;11773;52.570;13.052;2023-02-15T01:04:42;102850.00;;;7.80
23208;BMP180;11773;52.570;13.052;2023-02-15T01:07:12;102836.00;;;7.70
23208;BMP180;11773;52.570;13.052;2023-02-15T01:09:41;102839.00;;;7.70
23208;BMP180;11773;52.570;13.052;2023-02-15T01:12:11;102830.00;;;7.70
23208;BMP180;11773;52.570;13.052;2023-02-15T01:14:40;102817.00;;;7.70
23208;BMP180;11773;52.570;13.052;2023-02-15T01:17:10;102821.00;;;7.70
23208;BMP180;11773;52.570;13.052;2023-02-15T01:19:39;102827.00;;;7.70
23208;BMP180;11773;52.570;13.052;2023-02-15T01:22:09;102837.00;;;7.60
23208;BMP180;11773;52.570;13.052;2023-02-15T01:24:38;102838.00;;;7.60
23208;BMP180;11773;52.570;13.052;2023-02-15T01:27:08;102811.00;;;7.50
23208;BMP180;11773;52.570;13.052;2023-02-15T01:29:37;102814.00;;;7.60
23208;BMP180;11773;52.570;13.052;2023-02-15T01:32:07;102823.00;;;7.50
23208;BMP180;11773;52.570;13.052;2023-02-15T01:34:36;102817.00;;;7.50
23208;BMP180;11773;52.570;13.052;2023-02-15T01:37:06;102799.00;;;7.50
23208;BMP180;11773;52.570;13.052;2023-02-15T01:39:35;102802.00;;;7.50
23208;BMP180;11773;52.570;13.052;2023-02-15T01:42:05;102795.00;;;7.50
23208;BMP180;11773;52.570;13.052;2023-02-15T01:44:53;102788.00;;;7.50
23208;BMP180;11773;52.570;13.052;2023-02-15T01:47:39;102796.00;;;7.40
23208;BMP180;11773;52.570;13.052;2023-02-15T01:50:30;102773.00;;;7.30
23208;BMP180;11773;52.570;13.052;2023-02-15T01:53:09;102765.00;;;7.30
23208;BMP180;11773;52.570;13.052;2023-02-15T01:55:50;102770.00;;;7.30
23208;BMP180;11773;52.570;13.052;2023-02-15T01:58:20;102755.00;;;7.20
23208;BMP180;11773;52.570;13.052;2023-02-15T02:00:50;102758.00;;;7.20
23208;BMP180;11773;52.570;13.052;2023-02-15T02:03:36;102749.00;;;7.20
23208;BMP180;11773;52.570;13.052;2023-02-15T02:06:03;102750.00;;;7.20
23208;BMP180;11773;52.570;13.052;2023-02-15T02:08:33;102747.00;;;7.20
23208;BMP180;11773;52.570;13.052;2023-02-15T02:11:04;102740.00;;;7.10
23208;BMP180;11773;52.570;13.052;2023-02-15T02:13:33;102741.00;;;7.10
23208;BMP180;11773;52.570;13.052;2023-02-15T02:16:08;102734.00;;;7.10
23208;BMP180;11773;52.570;13.052;2023-02-15T02:19:02;102744.00;;;7.10
23208;BMP180;11773;52.570;13.052;2023-02-15T02:30:48;102727.00;;;6.80
23208;BMP180;11773;52.570;13.052;2023-02-15T02:33:53;102732.00;;;6.80
23208;BMP180;11773;52.570;13.052;2023-02-15T02:36:34;102726.00;;;6.80
23208;BMP180;11773;52.570;13.052;2023-02-15T02:42:25;102732.00;;;6.80
23208;BMP180;11773;52.570;13.052;2023-02-15T02:45:28;102731.00;;;6.80
23208;BMP180;11773;52.570;13.052;2023-02-15T02:47:56;102741.00;;;6.80
23208;BMP180;11773;52.570;13.052;2023-02-15T02:50:28;102725.00;;;6.80
23208;BMP180;11773;52.570;13.052;2023-02-15T02:53:00;102719.00;;;6.70
23208;BMP180;11773;52.570;13.052;2023-02-15T02:55:37;102717.00;;;6.80
23208;BMP180;11773;52.570;13.052;2023-02-15T03:04:32;102711.00;;;6.70
23208;BMP180;11773;52.570;13.052;2023-02-15T03:07:00;102694.00;;;6.60
23208;BMP180;11773;52.570;13.052;2023-02-15T03:09:41;102713.00;;;6.60
23208;BMP180;11773;52.570;13.052;2023-02-15T03:12:23;102705.00;;;6.60
23208;BMP180;11773;52.570;13.052;2023-02-15T03:15:06;102692.00;;;6.60
23208;BMP180;11773;52.570;13.052;2023-02-15T03:17:45;102692.00;;;6.60
23208;BMP180;11773;52.570;13.052;2023-02-15T03:20:18;102707.00;;;6.60
23208;BMP180;11773;52.570;13.052;2023-02-15T03:22:51;102694.00;;;6.60
23208;BMP180;11773;52.570;13.052;2023-02-15T03:25:36;102681.00;;;6.60
23208;BMP180;11773;52.570;13.052;2023-02-15T03:28:06;102683.00;;;6.60
23208;BMP180;11773;52.570;13.052;2023-02-15T03:30:32;102682.00;;;6.50
23208;BMP180;11773;52.570;13.052;2023-02-15T03:33:05;102682.00;;;6.50
23208;BMP180;11773;52.570;13.052;2023-02-15T03:35:44;102678.00;;;6.50
23208;BMP180;11773;52.570;13.052;2023-02-15T03:38:19;102675.00;;;6.50
23208;BMP180;11773;52.570;13.052;2023-02-15T03:40:49;102677.00;;;6.50
23208;BMP180;11773;52.570;13.052;2023-02-15T03:43:45;102680.00;;;6.50
23208;BMP180;11773;52.570;13.052;2023-02-15T03:46:39;102666.00;;;6.50
23208;BMP180;11773;52.570;13.052;2023-02-15T03:49:11;102677.00;;;6.40
23208;BMP180;11773;52.570;13.052;2023-02-15T03:51:45;102674.00;;;6.40
23208;BMP180;11773;52.570;13.052;2023-02-15T03:54:25;102668.00;;;6.40
23208;BMP180;11773;52.570;13.052;2023-02-15T03:57:19;102672.00;;;6.40
23208;BMP180;11773;52.570;13.052;2023-02-15T04:00:21;102658.00;;;6.30
23208;BMP180;11773;52.570;13.052;2023-02-15T04:03:23;102657.00;;;6.30
23208;BMP180;11773;52.570;13.052;2023-02-15T04:05:53;102658.00;;;6.30
23208;BMP180;11773;52.570;13.052;2023-02-15T04:08:23;102661.00;;;6.30
23208;BMP180;11773;52.570;13.052;2023-02-15T04:10:55;102675.00;;;6.30
23208;BMP180;11773;52.570;13.052;2023-02-15T04:13:32;102656.00;;;6.30
23208;BMP180;11773;52.570;13.052;2023-02-15T04:16:02;102666.00;;;6.30
23208;BMP180;11773;52.570;13.052;2023-02-15T04:18:43;102652.00;;;6.20
23208;BMP180;11773;52.570;13.052;2023-02-15T04:21:31;102646.00;;;6.20
23208;BMP180;11773;52.570;13.052;2023-02-15T04:24:19;102639.00;;;6.10
23208;BMP180;11773;52.570;13.052;2023-02-15T04:27:06;102645.00;;;6.10
23208;BMP180;11773;52.570;13.052;2023-02-15T04:29:36;102641.00;;;6.10
23208;BMP180;11773;52.570;13.052;2023-02-15T04:32:05;102651.00;;;6.10
23208;BMP180;11773;52.570;13.052;2023-02-15T04:34:35;102648.00;;;6.10
23208;BMP180;11773;52.570;13.052;2023-02-15T04:37:04;102640.00;;;6.10
23208;BMP180;11773;52.570;13.052;2023-02-15T04:39:34;102620.00;;;6.10
23208;BMP180;11773;52.570;13.052;2023-02-15T04:42:03;102628.00;;;6.10
23208;BMP180;11773;52.570;13.052;2023-02-15T04:44:33;102609.00;;;6.10
23208;BMP180;11773;52.570;13.052;2023-02-15T04:47:02;102614.00;;;6.10
23208;BMP180;11773;52.570;13.052;2023-02-15T04:49:32;102613.00;;;6.10
23208;BMP180;11773;52.570;13.052;2023-02-15T04:52:01;102599.00;;;6.00
23208;BMP180;11773;52.570;13.052;2023-02-15T04:54:31;102602.00;;;6.00
23208;BMP180;11773;52.570;13.052;2023-02-15T04:57:00;102601.00;;;6.00
23208;BMP180;11773;52.570;13.052;2023-02-15T04:59:30;102596.00;;;6.00
23208;BMP180;11773;52.570;13.052;2023-02-15T05:01:59;102593.00;;;5.90
23208;BMP180;11773;52.570;13.052;2023-02-15T05:04:29;102595.00;;;6.00
23208;BMP180;11773;52.570;13.052;2023-02-15T05:06:58;102581.00;;;6.00
23208;BMP180;11773;52.570;13.052;2023-02-15T05:09:28;102576.00;;;6.00
23208;BMP180;11773;52.570;13.052;2023-02-15T05:11:57;102583.00;;;6.00
23208;BMP180;11773;52.570;13.052;2023-02-15T05:14:27;102595.00;;;6.00
23208;BMP180;11773;52.570;13.052;2023-02-15T05:16:56;102595.00;;;6.00
23208;BMP180;11773;52.570;13.052;2023-02-15T05:19:28;102590.00;;;5.90
23208;BMP180;11773;52.570;13.052;2023-02-15T05:21:57;102588.00;;;5.90
23208;BMP180;11773;52.570;13.052;2023-02-15T05:24:27;102581.00;;;5.90
23208;BMP180;11773;52.570;13.052;2023-02-15T05:27:15;102589.00;;;5.90
23208;BMP180;11773;52.570;13.052;2023-02-15T05:30:03;102587.00;;;5.80
23208;BMP180;11773;52.570;13.052;2023-02-15T05:32:32;102576.00;;;5.80
23208;BMP180;11773;52.570;13.052;2023-02-15T05:35:02;102577.00;;;5.80
23208;BMP180;11773;52.570;13.052;2023-02-15T05:37:32;102576.00;;;5.80
23208;BMP180;11773;52.570;13.052;2023-02-15T05:40:01;102575.00;;;5.80
23208;BMP180;11773;52.570;13.052;2023-02-15T05:42:31;102573.00;;;5.80
23208;BMP180;11773;52.570;13.052;2023-02-15T05:45:00;102569.00;;;5.80
23208;BMP180;11773;52.570;13.052;2023-02-15T05:47:31;102563.00;;;5.80
23208;BMP180;11773;52.570;13.052;2023-02-15T05:50:01;102574.00;;;5.80
23208;BMP180;11773;52.570;13.052;2023-02-15T05:52:30;102575.00;;;5.80
23208;BMP180;11773;52.570;13.052;2023-02-15T05:55:00;102585.00;;;5.80
23208;BMP180;11773;52.570;13.052;2023-02-15T05:57:31;102565.00;;;5.80
23208;BMP180;11773;52.570;13.052;2023-02-15T06:00:01;102562.00;;;5.80
23208;BMP180;11773;52.570;13.052;2023-02-15T06:02:36;102572.00;;;5.80
23208;BMP180;11773;52.570;13.052;2023-02-15T06:05:07;102557.00;;;5.80
23208;BMP180;11773;52.570;13.052;2023-02-15T06:07:37;102563.00;;;5.80
23208;BMP180;11773;52.570;13.052;2023-02-15T06:10:07;102552.00;;;5.70
23208;BMP180;11773;52.570;13.052;2023-02-15T06:12:37;102557.00;;;5.80
23208;BMP180;11773;52.570;13.052;2023-02-15T06:15:06;102552.00;;;5.70
23208;BMP180;11773;52.570;13.052;2023-02-15T06:17:36;102542.00;;;5.70
23208;BMP180;11773;52.570;13.052;2023-02-15T06:20:06;102554.00;;;5.70
23208;BMP180;11773;52.570;13.052;2023-02-15T06:22:36;102555.00;;;5.70
23208;BMP180;11773;52.570;13.052;2023-02-15T06:25:06;102555.00;;;5.70
23208;BMP180;11773;52.570;13.052;2023-02-15T06:27:38;102560.00;;;5.70
23208;BMP180;11773;52.570;13.052;2023-02-15T06:30:11;102573.00;;;5.80
23208;BMP180;11773;52.570;13.052;2023-02-15T06:32:40;102559.00;;;5.80
23208;BMP180;11773;52.570;13.052;2023-02-15T06:35:10;102570.00;;;5.80
23208;BMP180;11773;52.570;13.052;2023-02-15T06:37:40;102578.00;;;5.80
23208;BMP180;11773;52.570;13.052;2023-02-15T06:40:10;102560.00;;;5.80
23208;BMP180;11773;52.570;13.052;2023-02-15T06:42:39;102562.00;;;5.80
23208;BMP180;11773;52.570;13.052;2023-02-15T06:45:10;102561.00;;;5.90
23208;BMP180;11773;52.570;13.052;2023-02-15T06:47:40;102570.00;;;5.90
23208;BMP180;11773;52.570;13.052;2023-02-15T06:50:10;102563.00;;;5.90
23208;BMP180;11773;52.570;13.052;2023-02-15T06:52:39;102561.00;;;5.90
23208;BMP180;11773;52.570;13.052;2023-02-15T06:55:09;102560.00;;;5.90
23208;BMP180;11773;52.570;13.052;2023-02-15T06:57:39;102560.00;;;5.90
23208;BMP180;11773;52.570;13.052;2023-02-15T07:00:09;102564.00;;;5.90
23208;BMP180;11773;52.570;13.052;2023-02-15T07:02:38;102563.00;;;5.90
23208;BMP180;11773;52.570;13.052;2023-02-15T07:05:08;102559.00;;;6.00
23208;BMP180;11773;52.570;13.052;2023-02-15T07:07:37;102576.00;;;6.00
23208;BMP180;11773;52.570;13.052;2023-02-15T07:10:07;102563.00;;;6.00
23208;BMP180;11773;52.570;13.052;2023-02-15T07:12:37;102567.00;;;6.00
23208;BMP180;11773;52.570;13.052;2023-02-15T07:15:17;102564.00;;;6.00
23208;BMP180;11773;52.570;13.052;2023-02-15T07:17:49;102541.00;;;6.00
23208;BMP180;11773;52.570;13.052;2023-02-15T07:20:21;102537.00;;;6.00
23208;BMP180;11773;52.570;13.052;2023-02-15T07:22:51;102530.00;;;6.00
23208;BMP180;11773;52.570;13.052;2023-02-15T07:25:21;102534.00;;;6.00
23208;BMP180;11773;52.570;13.052;2023-02-15T07:27:59;102535.00;;;6.00
23208;BMP180;11773;52.570;13.052;2023-02-15T07:30:29;102523.00;;;6.00
23208;BMP180;11773;52.570;13.052;2023-02-15T07:32:59;102522.00;;;6.00
23208;BMP180;11773;52.570;13.052;2023-02-15T07:35:55;102526.00;;;6.00
23208;BMP180;11773;52.570;13.052;2023-02-15T07:38:30;102518.00;;;6.00
23208;BMP180;11773;52.570;13.052;2023-02-15T07:41:05;102518.00;;;6.00
23208;BMP180;11773;52.570;13.052;2023-02-15T07:43:38;102519.00;;;6.10
23208;BMP180;11773;52.570;13.052;2023-02-15T07:46:11;102531.00;;;6.10
23208;BMP180;11773;52.570;13.052;2023-02-15T07:48:42;102512.00;;;6.10
23208;BMP180;11773;52.570;13.052;2023-02-15T07:51:12;102518.00;;;6.10
23208;BMP180;11773;52.570;13.052;2023-02-15T07:53:43;102530.00;;;6.10
23208;BMP180;11773;52.570;13.052;2023-02-15T07:56:14;102522.00;;;6.10
23208;BMP180;11773;52.570;13.052;2023-02-15T07:58:43;102513.00;;;6.10
23208;BMP180;11773;52.570;13.052;2023-02-15T08:01:30;102523.00;;;6.10
23208;BMP180;11773;52.570;13.052;2023-02-15T08:04:01;102525.00;;;6.10
23208;BMP180;11773;52.570;13.052;2023-02-15T08:06:34;102515.00;;;6.20
23208;BMP180;11773;52.570;13.052;2023-02-15T08:09:07;102508.00;;;6.20
23208;BMP180;11773;52.570;13.052;2023-02-15T08:11:38;102506.00;;;6.20
23208;BMP180;11773;52.570;13.052;2023-02-15T08:14:17;102504.00;;;6.30
23208;BMP180;11773;52.570;13.052;2023-02-15T08:16:50;102498.00;;;6.30
23208;BMP180;11773;52.570;13.052;2023-02-15T08:19:33;102494.00;;;6.30
23208;BMP180;11773;52.570;13.052;2023-02-15T08:22:04;102508.00;;;6.30
23208;BMP180;11773;52.570;13.052;2023-02-15T08:24:36;102489.00;;;6.30
23208;BMP180;11773;52.570;13.052;2023-02-15T08:27:09;102491.00;;;6.30
23208;BMP180;11773;52.570;13.052;2023-02-15T08:29:39;102487.00;;;6.40
23208;BMP180;11773;52.570;13.052;2023-02-15T08:32:12;102491.00;;;6.40
23208;BMP180;11773;52.570;13.052;2023-02-15T08:35:01;102487.00;;;6.40
23208;BMP180;11773;52.570;13.052;2023-02-15T08:37:30;102490.00;;;6.40
23208;BMP180;11773;52.570;13.052;2023-02-15T08:40:00;102491.00;;;6.40
23208;BMP180;11773;52.570;13.052;2023-02-15T08:42:33;102503.00;;;6.50
23208;BMP180;11773;52.570;13.052;2023-02-15T08:45:02;102477.00;;;6.50
23208;BMP180;11773;52.570;13.052;2023-02-15T08:47:32;102483.00;;;6.50
23208;BMP180;11773;52.570;13.052;2023-02-15T08:50:01;102483.00;;;6.50
23208;BMP180;11773;52.570;13.052;2023-02-15T08:52:31;102482.00;;;6.50
23208;BMP180;11773;52.570;13.052;2023-02-15T08:55:00;102478.00;;;6.60
23208;BMP180;11773;52.570;13.052;2023-02-15T08:57:30;102481.00;;;6.60
23208;BMP180;11773;52.570;13.052;2023-02-15T08:59:59;102473.00;;;6.60
23208;BMP180;11773;52.570;13.052;2023-02-15T09:02:28;102472.00;;;6.60
23208;BMP180;11773;52.570;13.052;2023-02-15T09:04:58;102470.00;;;6.60
23208;BMP180;11773;52.570;13.052;2023-02-15T09:07:27;102469.00;;;6.70
23208;BMP180;11773;52.570;13.052;2023-02-15T09:09:57;102466.00;;;6.70
23208;BMP180;11773;52.570;13.052;2023-02-15T09:12:27;102481.00;;;6.80
23208;BMP180;11773;52.570;13.052;2023-02-15T09:14:56;102469.00;;;6.80
23208;BMP180;11773;52.570;13.052;2023-02-15T09:17:26;102464.00;;;6.80
23208;BMP180;11773;52.570;13.052;2023-02-15T09:19:55;102462.00;;;6.90
23208;BMP180;11773;52.570;13.052;2023-02-15T09:22:25;102469.00;;;6.90
23208;BMP180;11773;52.570;13.052;2023-02-15T09:24:54;102462.00;;;6.90
23208;BMP180;11773;52.570;13.052;2023-02-15T09:27:24;102460.00;;;7.00
23208;BMP180;11773;52.570;13.052;2023-02-15T09:29:53;102465.00;;;7.00
23208;BMP180;11773;52.570;13.052;2023-02-15T09:32:23;102465.00;;;7.10
23208;BMP180;11773;52.570;13.052;2023-02-15T09:34:52;102472.00;;;7.10
23208;BMP180;11773;52.570;13.052;2023-02-15T09:37:22;102454.00;;;7.10
23208;BMP180;11773;52.570;13.052;2023-02-15T09:39:51;102459.00;;;7.20
23208;BMP180;11773;52.570;13.052;2023-02-15T09:42:58;102472.00;;;7.20
23208;BMP180;11773;52.570;13.052;2023-02-15T09:48:43;102468.00;;;7.20
23208;BMP180;11773;52.570;13.052;2023-02-15T09:54:38;102461.00;;;7.20
23208;BMP180;11773;52.570;13.052;2023-02-15T10:03:31;102454.00;;;7.20
23208;BMP180;11773;52.570;13.052;2023-02-15T10:17:36;102448.00;;;7.30
23208;BMP180;11773;52.570;13.052;2023-02-15T10:20:42;102450.00;;;7.40
23208;BMP180;11773;52.570;13.052;2023-02-15T10:23:47;102441.00;;;7.40
23208;BMP180;11773;52.570;13.052;2023-02-15T10:26:26;102441.00;;;7.30
23208;BMP180;11773;52.570;13.052;2023-02-15T10:29:04;102449.00;;;7.40
23208;BMP180;11773;52.570;13.052;2023-02-15T10:34:54;102447.00;;;7.50
23208;BMP180;11773;52.570;13.052;2023-02-15T10:37:56;102425.00;;;7.50
23208;BMP180;11773;52.570;13.052;2023-02-15T10:40:40;102424.00;;;7.50
23208;BMP180;11773;52.570;13.052;2023-02-15T10:46:20;102428.00;;;7.50
23208;BMP180;11773;52.570;13.052;2023-02-15T10:49:12;102410.00;;;7.60
23208;BMP180;11773;52.570;13.052;2023-02-15T10:51:51;102409.00;;;7.60
23208;BMP180;11773;52.570;13.052;2023-02-15T10:57:25;102421.00;;;7.70
23208;BMP180;11773;52.570;13.052;2023-02-15T11:03:05;102409.00;;;7.70
23208;BMP180;11773;52.570;13.052;2023-02-15T11:08:34;102394.00;;;7.70
23208;BMP180;11773;52.570;13.052;2023-02-15T11:11:15;102390.00;;;7.80
23208;BMP180;11773;52.570;13.052;2023-02-15T11:13:45;102393.00;;;7.80
23208;BMP180;11773;52.570;13.052;2023-02-15T11:16:40;102396.00;;;7.90
23208;BMP180;11773;52.570;13.052;2023-02-15T11:19:32;102409.00;;;7.90
23208;BMP180;11773;52.570;13.052;2023-02-15T11:22:05;102394.00;;;7.90
23208;BMP180;11773;52.570;13.052;2023-02-15T11:24:42;102389.00;;;8.00
23208;BMP180;11773;52.570;13.052;2023-02-15T11:27:25;102398.00;;;8.10
23208;BMP180;11773;52.570;13.052;2023-02-15T11:30:10;102376.00;;;8.10
23208;BMP180;11773;52.570;13.052;2023-02-15T11:32:51;102376.00;;;8.10
23208;BMP180;11773;52.570;13.052;2023-02-15T11:35:40;102367.00;;;8.20
23208;BMP180;11773;52.570;13.052;2023-02-15T11:38:24;102365.00;;;8.20
23208;BMP180;11773;52.570;13.052;2023-02-15T11:41:12;102357.00;;;8.30
23208;BMP180;11773;52.570;13.052;2023-02-15T11:44:14;102366.00;;;8.40
23208;BMP180;11773;52.570;13.052;2023-02-15T11:46:43;102364.00;;;8.40
23208;BMP180;11773;52.570;13.052;2023-02-15T11:49:31;102360.00;;;8.50
23208;BMP180;11773;52.570;13.052;2023-02-15T11:52:10;102364.00;;;8.60
23208;BMP180;11773;52.570;13.052;2023-02-15T11:54:47;102368.00;;;8.60
23208;BMP180;11773;52.570;13.052;2023-02-15T11:57:36;102361.00;;;8.70
23208;BMP180;11773;52.570;13.052;2023-02-15T12:00:27;102350.00;;;8.70
23208;BMP180;11773;52.570;13.052;2023-02-15T12:02:57;102349.00;;;8.80
23208;BMP180;11773;52.570;13.052;2023-02-15T12:05:27;102346.00;;;8.80
23208;BMP180;11773;52.570;13.052;2023-02-15T12:08:09;102345.00;;;8.90
23208;BMP180;11773;52.570;13.052;2023-02-15T12:10:43;102345.00;;;9.00
23208;BMP180;11773;52.570;13.052;2023-02-15T12:13:17;102352.00;;;9.10
23208;BMP180;11773;52.570;13.052;2023-02-15T12:15:51;102348.00;;;9.20
23208;BMP180;11773;52.570;13.052;2023-02-15T12:18:43;102342.00;;;9.20
23208;BMP180;11773;52.570;13.052;2023-02-15T12:21:39;102336.00;;;9.30
23208;BMP180;11773;52.570;13.052;2023-02-15T12:24:34;102332.00;;;9.30
23208;BMP180;11773;52.570;13.052;2023-02-15T12:27:02;102336.00;;;9.40
23208;BMP180;11773;52.570;13.052;2023-02-15T12:29:35;102330.00;;;9.50
23208;BMP180;11773;52.570;13.052;2023-02-15T12:32:34;102326.00;;;9.60
23208;BMP180;11773;52.570;13.052;2023-02-15T12:35:30;102336.00;;;9.60
23208;BMP180;11773;52.570;13.052;2023-02-15T12:40:56;102330.00;;;9.80
23208;BMP180;11773;52.570;13.052;2023-02-15T12:43:36;102322.00;;;9.90
23208;BMP180;11773;52.570;13.052;2023-02-15T12:46:24;102320.00;;;9.90
23208;BMP180;11773;52.570;13.052;2023-02-15T12:49:19;102329.00;;;10.00
23208;BMP180;11773;52.570;13.052;2023-02-15T12:51:56;102316.00;;;10.10
23208;BMP180;11773;52.570;13.052;2023-02-15T12:54:37;102302.00;;;10.20
23208;BMP180;11773;52.570;13.052;2023-02-15T12:57:33;102300.00;;;10.20
23208;BMP180;11773;52.570;13.052;2023-02-15T13:02:53;102293.00;;;10.40
23208;BMP180;11773;52.570;13.052;2023-02-15T13:05:38;102296.00;;;10.50
23208;BMP180;11773;52.570;13.052;2023-02-15T13:08:26;102274.00;;;10.60
23208;BMP180;11773;52.570;13.052;2023-02-15T13:11:06;102280.00;;;10.70
23208;BMP180;11773;52.570;13.052;2023-02-15T13:14:03;102294.00;;;10.70
23208;BMP180;11773;52.570;13.052;2023-02-15T13:16:37;102281.00;;;10.80
23208;BMP180;11773;52.570;13.052;2023-02-15T13:21:53;102261.00;;;11.00
23208;BMP180;11773;52.570;13.052;2023-02-15T13:24:41;102256.00;;;11.10
23208;BMP180;11773;52.570;13.052;2023-02-15T13:27:20;102271.00;;;11.10
23208;BMP180;11773;52.570;13.052;2023-02-15T13:29:56;102264.00;;;11.20
23208;BMP180;11773;52.570;13.052;2023-02-15T13:32:38;102279.00;;;11.30
23208;BMP180;11773;52.570;13.052;2023-02-15T13:35:15;102269.00;;;11.30
23208;BMP180;11773;52.570;13.052;2023-02-15T13:38:18;102270.00;;;11.40
23208;BMP180;11773;52.570;13.052;2023-02-15T13:40:58;102255.00;;;11.50
23208;BMP180;11773;52.570;13.052;2023-02-15T13:43:35;102255.00;;;11.50
23208;BMP180;11773;52.570;13.052;2023-02-15T13:46:50;102247.00;;;11.60
23208;BMP180;11773;52.570;13.052;2023-02-15T13:52:29;102241.00;;;11.70
23208;BMP180;11773;52.570;13.052;2023-02-15T13:55:36;102250.00;;;11.80
23208;BMP180;11773;52.570;13.052;2023-02-15T14:07:47;102222.00;;;11.90
23208;BMP180;11773;52.570;13.052;2023-02-15T14:10:34;102215.00;;;12.00
23208;BMP180;11773;52.570;13.052;2023-02-15T14:13:23;102234.00;;;12.00
23208;BMP180;11773;52.570;13.052;2023-02-15T14:18:50;102212.00;;;12.10
23208;BMP180;11773;52.570;13.052;2023-02-15T14:21:44;102215.00;;;12.10
23208;BMP180;11773;52.570;13.052;2023-02-15T14:24:40;102206.00;;;12.20
23208;BMP180;11773;52.570;13.052;2023-02-15T14:27:20;102208.00;;;12.20
23208;BMP180;11773;52.570;13.052;2023-02-15T14:30:27;102211.00;;;12.30
23208;BMP180;11773;52.570;13.052;2023-02-15T14:32:47;102197.00;;;12.30
23208;BMP180;11773;52.570;13.052;2023-02-15T14:35:28;102202.00;;;12.40
23208;BMP180;11773;52.570;13.052;2023-02-15T14:41:10;102212.00;;;12.50
23208;BMP180;11773;52.570;13.052;2023-02-15T14:46:57;102192.00;;;12.60
23208;BMP180;11773;52.570;13.052;2023-02-15T14:49:30;102206.00;;;12.60
23208;BMP180;11773;52.570;13.052;2023-02-15T14:52:09;102197.00;;;12.60
23208;BMP180;11773;52.570;13.052;2023-02-15T14:57:22;102197.00;;;12.70
23208;BMP180;11773;52.570;13.052;2023-02-15T14:59:59;102210.00;;;12.80
23208;BMP180;11773;52.570;13.052;2023-02-15T15:02:50;102200.00;;;12.80
23208;BMP180;11773;52.570;13.052;2023-02-15T15:05:36;102208.00;;;12.80
23208;BMP180;11773;52.570;13.052;2023-02-15T15:08:19;102212.00;;;12.80
23208;BMP180;11773;52.570;13.052;2023-02-15T15:10:44;102212.00;;;12.90
23208;BMP180;11773;52.570;13.052;2023-02-15T15:13:36;102205.00;;;12.90
23208;BMP180;11773;52.570;13.052;2023-02-15T15:16:28;102204.00;;;12.90
23208;BMP180;11773;52.570;13.052;2023-02-15T15:18:58;102212.00;;;12.90
23208;BMP180;11773;52.570;13.052;2023-02-15T15:27:46;102214.00;;;13.00
23208;BMP180;11773;52.570;13.052;2023-02-15T15:33:36;102201.00;;;13.00
23208;BMP180;11773;52.570;13.052;2023-02-15T15:40:09;102204.00;;;13.00
23208;BMP180;11773;52.570;13.052;2023-02-15T15:43:00;102207.00;;;13.00
23208;BMP180;11773;52.570;13.052;2023-02-15T15:46:01;102206.00;;;13.00
23208;BMP180;11773;52.570;13.052;2023-02-15T15:48:37;102220.00;;;13.00
23208;BMP180;11773;52.570;13.052;2023-02-15T15:51:10;102205.00;;;13.00
23208;BMP180;11773;52.570;13.052;2023-02-15T15:53:49;102200.00;;;13.00
23208;BMP180;11773;52.570;13.052;2023-02-15T15:56:19;102201.00;;;13.00
23208;BMP180;11773;52.570;13.052;2023-02-15T15:59:00;102196.00;;;13.00
23208;BMP180;11773;52.570;13.052;2023-02-15T16:01:43;102189.00;;;12.90
23208;BMP180;11773;52.570;13.052;2023-02-15T16:04:30;102191.00;;;12.90
23208;BMP180;11773;52.570;13.052;2023-02-15T16:10:01;102194.00;;;12.80
23208;BMP180;11773;52.570;13.052;2023-02-15T16:12:35;102206.00;;;12.80
23208;BMP180;11773;52.570;13.052;2023-02-15T16:15:14;102213.00;;;12.80
23208;BMP180;11773;52.570;13.052;2023-02-15T16:17:49;102204.00;;;12.70
23208;BMP180;11773;52.570;13.052;2023-02-15T16:20:26;102207.00;;;12.70
23208;BMP180;11773;52.570;13.052;2023-02-15T16:23:26;102199.00;;;12.70
23208;BMP180;11773;52.570;13.052;2023-02-15T16:26:21;102191.00;;;12.70
23208;BMP180;11773;52.570;13.052;2023-02-15T16:28:56;102195.00;;;12.60
23208;BMP180;11773;52.570;13.052;2023-02-15T16:31:23;102210.00;;;12.60
23208;BMP180;11773;52.570;13.052;2023-02-15T16:33:55;102209.00;;;12.60